Time;durP1;ratioP1;P1;durP2;ratioP2;P2;SDS_P1;SDS_P2;PMS_P1;PMS_P2;Temp;Humidity;BMP_temperature;BMP_pressure;BME280_temperature;BME280_humidity;BME280_pressure;Samples;Min_cycle;Max_cycle;Signal;HPM_P1;HPM_P2
2021/06/17 00:00:27;;;;;;;15.45;10.98;;;;;;;13.07;72.99;93883.06;736187;40;20279;-72
2021/06/17 00:00:57;;;;;;;16.67;11.35;;;;;;;13.04;73.11;93883.56;733490;40;20538;-72
2021/06/17 00:01:28;;;;;;;16.10;11.00;;;;;;;13.08;72.95;93882.06;733709;40;20059;-71
2021/06/17 00:02:02;;;;;;;17.67;11.20;;;;;;;13.08;73.00;93883.91;734807;40;20293;-71
2021/06/17 00:02:33;;;;;;;20.60;11.27;;;;;;;13.06;73.09;93889.34;733388;40;20191;-72
2021/06/17 00:03:05;;;;;;;17.30;11.02;;;;;;;13.11;72.71;93886.78;736555;40;20185;-71
2021/06/17 00:03:35;;;;;;;21.83;11.07;;;;;;;13.07;72.60;93875.25;734940;40;20059;-72
2021/06/17 00:04:06;;;;;;;16.40;10.82;;;;;;;13.09;72.64;93877.63;736088;40;20051;-72
2021/06/17 00:04:36;;;;;;;14.65;10.18;;;;;;;13.14;72.65;93884.72;735272;40;20041;-72
2021/06/17 00:05:10;;;;;;;17.02;10.50;;;;;;;13.12;72.69;93890.97;735745;40;20045;-71
2021/06/17 00:05:42;;;;;;;18.13;10.68;;;;;;;13.11;72.56;93886.00;734915;40;20037;-72
2021/06/17 00:06:12;;;;;;;14.93;10.63;;;;;;;13.12;72.42;93884.97;736606;40;20102;-72
2021/06/17 00:06:43;;;;;;;13.55;10.45;;;;;;;13.13;72.63;93883.91;735812;40;20045;-71
2021/06/17 00:07:14;;;;;;;16.10;10.90;;;;;;;13.14;72.53;93884.72;736893;40;20040;-72
2021/06/17 00:07:47;;;;;;;14.93;10.10;;;;;;;13.15;72.44;93888.91;734904;40;20033;-72
2021/06/17 00:08:18;;;;;;;14.73;10.25;;;;;;;13.17;72.29;93889.47;736925;40;20032;-73
2021/06/17 00:08:48;;;;;;;16.80;10.18;;;;;;;13.18;72.25;93886.59;735583;40;20045;-72
2021/06/17 00:09:19;;;;;;;14.43;10.98;;;;;;;13.16;72.21;93882.66;736389;40;20071;-72
2021/06/17 00:09:49;;;;;;;17.52;10.13;;;;;;;13.18;72.25;93886.59;733521;40;20049;-72
2021/06/17 00:10:32;;;;;;;15.85;10.65;;;;;;;13.18;72.30;93891.03;734187;40;20179;-72
2021/06/17 00:11:02;;;;;;;12.77;10.35;;;;;;;13.14;72.02;93882.13;733864;40;20040;-71
2021/06/17 00:11:33;;;;;;;11.60;10.07;;;;;;;13.14;72.21;93872.47;734508;40;20145;-72
2021/06/17 00:12:04;;;;;;;14.93;10.88;;;;;;;13.18;72.11;93881.38;734903;40;20036;-72
2021/06/17 00:12:35;;;;;;;16.88;10.75;;;;;;;13.20;72.03;93886.34;735416;40;20045;-72
2021/06/17 00:13:15;;;;;;;16.15;10.48;;;;;;;13.22;71.91;93876.44;734291;40;20177;-72
2021/06/17 00:13:46;;;;;;;15.00;10.23;;;;;;;13.20;71.92;93884.53;733852;40;20259;-72
2021/06/17 00:14:18;;;;;;;21.17;10.52;;;;;;;13.16;72.04;93877.41;737506;40;20053;-72
2021/06/17 00:14:48;;;;;;;12.63;10.10;;;;;;;13.10;72.26;93877.41;736634;40;20252;-72
2021/06/17 00:15:22;;;;;;;19.38;9.95;;;;;;;13.13;72.26;93881.31;737280;40;20684;-72
2021/06/17 00:16:04;;;;;;;13.60;10.63;;;;;;;13.08;72.29;93883.91;736332;40;20448;-72
2021/06/17 00:16:35;;;;;;;12.73;9.55;;;;;;;12.99;72.54;93873.09;736620;40;20062;-71
2021/06/17 00:17:06;;;;;;;15.90;10.45;;;;;;;13.00;72.44;93885.09;739080;40;20047;-72
2021/06/17 00:17:37;;;;;;;17.65;10.18;;;;;;;12.99;72.77;93880.94;737406;40;20088;-72
2021/06/17 00:18:09;;;;;;;15.32;10.00;;;;;;;12.90;72.86;93879.78;738230;40;20143;-73
2021/06/17 00:18:39;;;;;;;17.80;10.68;;;;;;;12.86;72.89;93876.88;736371;40;20088;-72
2021/06/17 00:19:10;;;;;;;18.13;10.65;;;;;;;12.74;73.20;93884.06;735339;40;20040;-71
2021/06/17 00:19:40;;;;;;;12.43;10.30;;;;;;;12.59;73.63;93881.28;731184;40;20105;-72
2021/06/17 00:20:12;;;;;;;20.73;10.23;;;;;;;12.47;74.12;93884.00;733672;40;20042;-71
2021/06/17 00:20:43;;;;;;;16.65;10.90;;;;;;;12.37;74.49;93881.25;732010;40;20427;-71
2021/06/17 00:21:14;;;;;;;20.15;10.77;;;;;;;12.32;74.88;93873.38;731807;40;20062;-71
2021/06/17 00:21:44;;;;;;;14.48;11.07;;;;;;;12.26;75.37;93884.75;732781;40;20691;-71
2021/06/17 00:22:15;;;;;;;15.80;11.35;;;;;;;12.23;75.60;93888.63;734520;40;20052;-72
2021/06/17 00:22:46;;;;;;;14.68;11.18;;;;;;;12.21;75.50;93881.06;732925;40;20156;-72
2021/06/17 00:23:16;;;;;;;13.77;10.23;;;;;;;12.13;75.79;93886.69;736542;40;20510;-73
2021/06/17 00:23:47;;;;;;;16.35;10.95;;;;;;;12.10;75.85;93881.19;735349;40;20222;-72
2021/06/17 00:24:18;;;;;;;16.40;10.95;;;;;;;12.09;76.15;93879.59;736479;40;20061;-72
2021/06/17 00:24:49;;;;;;;15.32;10.57;;;;;;;12.15;76.20;93891.66;735482;40;20219;-71
2021/06/17 00:25:20;;;;;;;21.83;10.82;;;;;;;12.17;76.03;93889.59;734597;40;20057;-72
2021/06/17 00:25:51;;;;;;;17.98;11.13;;;;;;;12.13;76.28;93886.69;730630;40;20183;-72
2021/06/17 00:26:22;;;;;;;17.42;11.38;;;;;;;12.19;75.98;93890.94;734729;40;20033;-72
2021/06/17 00:26:53;;;;;;;22.98;11.00;;;;;;;12.21;76.02;93888.91;735318;40;20141;-73
2021/06/17 00:27:23;;;;;;;15.10;10.77;;;;;;;12.17;76.13;93887.78;737883;40;20060;-71
2021/06/17 00:27:54;;;;;;;17.40;11.23;;;;;;;12.20;75.97;93882.09;732657;40;20040;-72
2021/06/17 00:28:25;;;;;;;16.45;10.85;;;;;;;12.20;76.28;93895.13;735338;40;20033;-73
2021/06/17 00:28:55;;;;;;;19.30;11.27;;;;;;;12.22;76.25;93887.06;735353;40;20201;-72
2021/06/17 00:29:26;;;;;;;14.70;11.00;;;;;;;12.26;75.97;93890.75;735312;40;20056;-72
2021/06/17 00:29:57;;;;;;;14.50;11.25;;;;;;;12.21;76.06;93883.69;733386;40;20048;-71
2021/06/17 00:30:27;;;;;;;17.70;11.05;;;;;;;12.30;75.88;93883.28;736232;40;20045;-72
2021/06/17 00:30:58;;;;;;;15.18;10.82;;;;;;;12.30;76.12;93883.28;737636;40;20069;-72
2021/06/17 00:31:29;;;;;;;13.98;11.30;;;;;;;12.31;76.00;93880.41;736706;40;20072;-73
2021/06/17 00:31:59;;;;;;;16.50;11.52;;;;;;;12.31;75.84;93882.22;733494;40;21309;-72
2021/06/17 00:32:30;;;;;;;19.15;10.88;;;;;;;12.33;75.68;93882.78;732940;40;20415;-72
2021/06/17 00:33:01;;;;;;;18.85;11.23;;;;;;;12.33;75.93;93880.97;734503;40;20041;-72
2021/06/17 00:33:32;;;;;;;15.50;10.90;;;;;;;12.29;75.87;93873.84;733209;40;20300;-73
2021/06/17 00:34:03;;;;;;;14.52;11.80;;;;;;;12.26;76.09;93879.56;736412;40;20127;-73
2021/06/17 00:34:34;;;;;;;17.05;11.35;;;;;;;12.30;76.01;93883.28;735040;40;20052;-72
2021/06/17 00:35:06;;;;;;;16.75;11.93;;;;;;;12.30;76.03;93876.22;735868;40;20275;-72
2021/06/17 00:35:37;;;;;;;17.95;11.82;;;;;;;12.35;76.01;93878.91;733904;40;20033;-72
2021/06/17 00:36:07;;;;;;;18.33;11.70;;;;;;;12.35;75.96;93878.09;736468;40;20459;-72
2021/06/17 00:36:39;;;;;;;18.02;12.07;;;;;;;12.38;76.01;93888.03;735897;40;20490;-73
2021/06/17 00:37:10;;;;;;;17.05;12.15;;;;;;;12.39;76.00;93880.00;738595;40;20037;-73
2021/06/17 00:37:41;;;;;;;18.20;12.15;;;;;;;12.40;75.93;93880.78;737758;40;20286;-72
2021/06/17 00:38:11;;;;;;;17.33;12.55;;;;;;;12.43;75.83;93882.91;738177;40;20048;-72
2021/06/17 00:38:42;;;;;;;16.52;12.00;;;;;;;12.39;75.76;93880.00;736365;40;20048;-72
2021/06/17 00:39:12;;;;;;;17.50;11.98;;;;;;;12.48;75.36;93879.56;738822;40;20073;-72
2021/06/17 00:39:43;;;;;;;13.82;12.02;;;;;;;12.47;75.33;93880.59;736839;40;20223;-72
2021/06/17 00:40:15;;;;;;;20.55;12.80;;;;;;;12.43;75.44;93886.28;738769;40;20182;-72
2021/06/17 00:40:46;;;;;;;15.98;12.30;;;;;;;12.45;75.33;93878.22;737853;40;20102;-73
2021/06/17 00:41:16;;;;;;;17.60;11.85;;;;;;;12.38;75.60;93873.22;739104;40;20049;-73
2021/06/17 00:41:47;;;;;;;19.38;12.23;;;;;;;12.36;75.59;93880.47;736639;40;20036;-73
2021/06/17 00:42:30;;;;;;;16.83;12.07;;;;;;;12.34;75.82;93876.53;737640;39;20053;-72
2021/06/17 00:43:03;;;;;;;20.92;12.35;;;;;;;12.31;75.69;93877.78;735605;40;20060;-72
2021/06/17 00:43:33;;;;;;;19.23;12.00;;;;;;;12.19;75.88;93867.47;736768;40;20083;-73
2021/06/17 00:44:04;;;;;;;15.13;11.63;;;;;;;12.26;75.81;93876.94;736704;40;20072;-73
2021/06/17 00:44:35;;;;;;;21.25;11.73;;;;;;;12.17;76.24;93877.34;736030;40;20037;-73
2021/06/17 00:45:09;;;;;;;15.30;11.95;;;;;;;12.19;76.07;93880.50;737932;40;20037;-73
2021/06/17 00:45:45;;;;;;;17.67;12.20;;;;;;;12.13;76.30;93878.09;735867;40;20072;-72
2021/06/17 00:46:16;;;;;;;18.55;12.15;;;;;;;12.09;76.63;93880.41;737714;40;20048;-72
2021/06/17 00:46:47;;;;;;;16.30;12.25;;;;;;;12.09;76.47;93880.41;737247;40;20143;-72
2021/06/17 00:47:17;;;;;;;14.40;12.07;;;;;;;12.01;76.94;93882.63;738476;40;20071;-72
2021/06/17 00:47:48;;;;;;;15.57;11.98;;;;;;;12.05;76.83;93883.72;736622;40;20310;-72
2021/06/17 00:48:20;;;;;;;15.02;11.80;;;;;;;12.05;76.98;93876.66;738310;40;20044;-72
2021/06/17 00:48:51;;;;;;;16.13;12.00;;;;;;;11.91;77.00;93862.41;737033;40;20052;-72
2021/06/17 00:49:22;;;;;;;18.75;12.32;;;;;;;12.03;77.05;93876.13;738319;40;20088;-73
2021/06/17 00:49:52;;;;;;;17.45;12.73;;;;;;;11.97;77.17;93874.47;737617;40;20055;-72
2021/06/17 00:50:26;;;;;;;23.35;12.13;;;;;;;11.91;77.07;93863.19;737933;40;20149;-72
2021/06/17 00:51:00;;;;;;;17.15;12.98;;;;;;;12.00;77.46;93876.59;737432;40;20041;-72
2021/06/17 00:51:30;;;;;;;19.83;12.85;;;;;;;12.04;77.19;93880.31;737457;40;20076;-72
2021/06/17 00:52:03;;;;;;;17.48;12.95;;;;;;;12.03;77.24;93878.72;735521;40;20056;-72
2021/06/17 00:52:33;;;;;;;16.02;12.10;;;;;;;12.00;77.24;93876.59;734692;40;20048;-72
2021/06/17 00:53:08;;;;;;;14.90;11.95;;;;;;;11.96;77.17;93871.06;737392;40;20599;-73
2021/06/17 00:53:39;;;;;;;16.35;11.98;;;;;;;12.02;77.27;93879.75;735373;40;20236;-73
2021/06/17 00:54:10;;;;;;;16.77;12.13;;;;;;;12.03;77.47;93885.75;735242;40;20048;-74
2021/06/17 00:54:40;;;;;;;16.10;12.02;;;;;;;11.85;77.31;93855.50;735695;40;20120;-72
2021/06/17 00:55:14;;;;;;;18.92;13.75;;;;;;;12.00;77.39;93879.19;735613;40;20048;-72
2021/06/17 00:55:46;;;;;;;19.48;12.65;;;;;;;11.99;77.80;93875.03;732754;40;20049;-72
2021/06/17 00:56:17;;;;;;;21.20;12.55;;;;;;;11.84;77.62;93856.56;733394;40;20068;-73
2021/06/17 00:56:48;;;;;;;17.33;12.40;;;;;;;11.98;77.59;93881.28;736380;40;20048;-72
2021/06/17 00:57:18;;;;;;;16.88;12.60;;;;;;;11.98;77.65;93878.69;734645;40;20047;-73
2021/06/17 00:57:49;;;;;;;15.98;12.77;;;;;;;12.01;77.55;93882.63;736838;40;20048;-72
2021/06/17 00:58:20;;;;;;;16.13;12.45;;;;;;;12.02;77.81;93881.59;735724;40;20048;-72
2021/06/17 00:58:51;;;;;;;17.42;13.13;;;;;;;11.96;78.03;93865.88;738133;40;20040;-72
2021/06/17 00:59:22;;;;;;;19.92;13.65;;;;;;;12.06;77.69;93874.84;735282;40;20052;-72
2021/06/17 00:59:52;;;;;;;17.95;12.75;;;;;;;12.01;77.80;93866.97;735415;40;20059;-72
2021/06/17 01:00:23;;;;;;;18.13;12.73;;;;;;;12.07;77.60;93879.84;735366;40;20195;-72
2021/06/17 01:00:54;;;;;;;22.98;12.45;;;;;;;12.04;77.71;93876.94;733985;40;20129;-73
2021/06/17 01:01:25;;;;;;;19.65;12.35;;;;;;;12.16;77.43;93877.59;733082;40;20180;-72
2021/06/17 01:01:56;;;;;;;18.08;13.07;;;;;;;12.19;76.87;93880.50;734282;40;20036;-73
2021/06/17 01:02:27;;;;;;;22.55;12.85;;;;;;;12.20;76.92;93881.31;732199;40;20526;-72
2021/06/17 01:02:57;;;;;;;19.25;12.07;;;;;;;12.12;76.96;93855.63;736253;40;20428;-72
2021/06/17 01:03:28;;;;;;;17.65;12.60;;;;;;;12.25;76.73;93873.56;735328;40;20081;-72
2021/06/17 01:03:59;;;;;;;26.65;12.98;;;;;;;12.25;76.75;93873.56;736311;40;20790;-73
2021/06/17 01:04:30;;;;;;;19.75;11.85;;;;;;;12.18;76.81;93865.13;735051;40;20083;-73
2021/06/17 01:05:00;;;;;;;17.02;12.45;;;;;;;12.14;76.65;93856.97;736321;40;20098;-74
2021/06/17 01:05:31;;;;;;;15.50;12.43;;;;;;;12.28;76.92;93872.28;733646;40;20354;-72
2021/06/17 01:06:02;;;;;;;17.17;12.95;;;;;;;12.33;76.54;93874.97;737002;40;20084;-74
2021/06/17 01:06:32;;;;;;;19.73;12.38;;;;;;;12.30;76.77;93870.22;734903;40;20036;-72
2021/06/17 01:07:03;;;;;;;20.85;12.35;;;;;;;12.28;76.81;93875.66;734746;40;20041;-72
2021/06/17 01:07:53;;;;;;;16.83;12.20;;;;;;;12.34;76.72;93876.53;733157;40;20149;-73
2021/06/17 01:08:58;;;;;;;20.88;13.60;;;;;;;12.36;76.53;93877.09;734004;40;20041;-71
2021/06/17 01:09:44;;;;;;;21.80;13.00;;;;;;;12.36;76.30;93874.47;734870;40;20052;-72
2021/06/17 01:10:39;;;;;;;19.25;13.13;;;;;;;12.37;76.53;93878.66;732948;40;20115;-72
2021/06/17 01:11:35;;;;;;;17.27;12.88;;;;;;;12.28;76.62;93877.50;735287;40;20259;-72
2021/06/17 01:12:24;;;;;;;18.15;12.65;;;;;;;12.28;76.47;93874.88;734693;40;20105;-72
2021/06/17 01:13:31;;;;;;;16.58;12.18;;;;;;;12.24;76.35;93879.00;733330;40;20045;-72
2021/06/17 01:14:04;;;;;;;21.65;11.73;;;;;;;12.16;76.55;93870.56;722505;40;20047;-73
2021/06/17 01:14:45;;;;;;;15.63;12.38;;;;;;;12.12;76.72;93879.91;725314;40;20097;-72
2021/06/17 01:15:20;;;;;;;16.77;12.02;;;;;;;12.04;77.11;93871.72;731960;40;20085;-73
2021/06/17 01:16:24;;;;;;;20.08;12.60;;;;;;;12.02;77.21;93876.38;734955;40;20091;-73
2021/06/17 01:17:03;;;;;;;16.90;12.13;;;;;;;11.94;77.60;93880.94;733249;40;20470;-73
2021/06/17 01:17:39;;;;;;;19.20;13.25;;;;;;;11.89;77.47;93864.44;736007;40;20226;-71
2021/06/17 01:18:14;;;;;;;16.55;12.75;;;;;;;11.85;77.83;93873.75;737259;40;20047;-71
2021/06/17 01:18:54;;;;;;;16.42;13.02;;;;;;;11.92;77.80;93880.41;736645;40;20044;-71
2021/06/17 01:19:30;;;;;;;17.77;12.80;;;;;;;11.91;77.53;93873.59;737121;40;20060;-70
2021/06/17 01:20:09;;;;;;;17.35;12.73;;;;;;;11.77;78.15;93862.72;737855;40;20419;-71
2021/06/17 01:20:50;;;;;;;26.50;12.73;;;;;;;11.83;78.36;93875.81;735656;40;20056;-72
2021/06/17 01:21:44;;;;;;;19.92;12.90;;;;;;;11.74;78.58;93872.81;735900;40;20818;-71
2021/06/17 01:22:14;;;;;;;19.20;12.10;;;;;;;11.71;78.85;93879.28;733936;40;20062;-71
2021/06/17 01:22:51;;;;;;;15.27;12.52;;;;;;;11.72;78.48;93867.84;735937;40;20264;-71
2021/06/17 01:23:34;;;;;;;19.08;13.32;;;;;;;11.71;78.72;93870.69;733863;40;20117;-72
2021/06/17 01:24:41;;;;;;;21.08;12.95;;;;;;;11.70;78.60;93867.28;732455;40;20050;-71
2021/06/17 01:25:37;;;;;;;22.58;12.77;;;;;;;11.72;78.69;93867.84;732478;40;20118;-72
2021/06/17 01:26:45;;;;;;;19.17;13.18;;;;;;;11.71;78.72;93866.25;735366;40;20057;-72
2021/06/17 01:27:44;;;;;;;17.20;12.93;;;;;;;11.76;78.71;93871.53;734594;40;20053;-72
2021/06/17 01:28:19;;;;;;;18.48;12.77;;;;;;;11.75;78.56;93867.38;734231;40;20037;-74
2021/06/17 01:28:52;;;;;;;22.77;12.55;;;;;;;11.71;78.85;93863.66;734740;40;20033;-73
2021/06/17 01:29:25;;;;;;;17.65;13.52;;;;;;;11.66;78.72;93866.19;731126;40;20095;-72
2021/06/17 01:30:03;;;;;;;18.33;13.48;;;;;;;11.65;78.84;93866.41;732703;40;20060;-72
2021/06/17 01:30:57;;;;;;;18.70;13.52;;;;;;;11.60;79.09;93866.34;730811;40;20252;-72
2021/06/17 01:31:32;;;;;;;27.88;14.57;;;;;;;11.55;79.65;93864.47;738757;40;20051;-72
2021/06/17 01:32:04;;;;;;;21.77;14.50;;;;;;;11.58;79.37;93866.59;737335;40;20087;-72
2021/06/17 01:32:36;;;;;;;21.52;14.25;;;;;;;11.56;79.88;93860.81;739278;40;20224;-73
2021/06/17 01:33:06;;;;;;;19.42;13.75;;;;;;;11.62;79.48;93857.25;737443;40;21576;-72
2021/06/17 01:33:42;;;;;;;17.55;13.88;;;;;;;11.60;79.51;93854.13;735532;40;20052;-71
2021/06/17 01:34:15;;;;;;;22.50;14.18;;;;;;;11.61;79.54;93860.13;736457;40;20034;-73
2021/06/17 01:34:49;;;;;;;25.85;13.95;;;;;;;11.62;79.53;93862.47;736292;40;20130;-73
2021/06/17 01:35:22;;;;;;;21.20;14.07;;;;;;;11.64;79.25;93862.25;737251;40;20041;-72
2021/06/17 01:35:58;;;;;;;23.83;14.15;;;;;;;11.58;79.26;93858.78;733082;40;20097;-72
2021/06/17 01:36:36;;;;;;;18.00;13.07;;;;;;;11.49;79.15;93847.19;734228;40;20777;-72
2021/06/17 01:37:11;;;;;;;19.20;13.52;;;;;;;11.60;79.47;93855.91;734784;40;20168;-71
2021/06/17 01:37:43;;;;;;;20.38;14.27;;;;;;;11.64;79.30;93850.00;736505;40;20063;-71
2021/06/17 01:38:22;;;;;;;17.15;13.07;;;;;;;11.64;79.33;93851.81;738326;40;20040;-72
2021/06/17 01:39:00;;;;;;;20.00;13.98;;;;;;;11.65;79.37;93859.38;735844;40;20130;-72
2021/06/17 01:39:31;;;;;;;21.17;13.10;;;;;;;11.62;79.41;93856.47;735228;40;20483;-71
2021/06/17 01:40:03;;;;;;;20.92;13.60;;;;;;;11.65;79.36;93853.41;735183;40;20041;-72
2021/06/17 01:40:36;;;;;;;16.67;13.55;;;;;;;11.68;79.54;93852.91;734195;40;20272;-73
2021/06/17 01:41:07;;;;;;;18.70;13.52;;;;;;;11.67;79.65;93851.34;735457;40;20419;-72
2021/06/17 01:41:43;;;;;;;18.23;13.38;;;;;;;11.62;79.49;93840.84;735994;40;20435;-72
2021/06/17 01:42:15;;;;;;;17.17;13.13;;;;;;;11.70;79.53;93851.66;735059;40;20158;-71
2021/06/17 01:42:46;;;;;;;17.58;13.85;;;;;;;11.68;79.69;93852.91;735303;40;20048;-73
2021/06/17 01:43:18;;;;;;;20.52;13.63;;;;;;;11.62;79.89;93852.06;736294;40;20053;-73
2021/06/17 01:43:49;;;;;;;22.30;14.07;;;;;;;11.58;80.05;93853.56;734262;40;20033;-72
2021/06/17 01:44:22;;;;;;;19.58;13.70;;;;;;;11.56;80.01;93853.00;735477;40;20102;-71
2021/06/17 01:44:57;;;;;;;19.80;13.73;;;;;;;11.55;80.09;93859.25;734395;40;20045;-72
2021/06/17 01:45:29;;;;;;;21.13;14.32;;;;;;;11.53;80.31;93861.28;737237;40;20056;-72
2021/06/17 01:46:01;;;;;;;18.13;14.10;;;;;;;11.54;80.26;93850.66;736190;40;20133;-72
2021/06/17 01:46:33;;;;;;;20.50;13.95;;;;;;;11.58;80.05;93850.97;736903;40;20152;-72
2021/06/17 01:47:06;;;;;;;20.42;14.30;;;;;;;11.56;80.13;93850.41;733391;40;20152;-72
2021/06/17 01:47:37;;;;;;;18.92;14.02;;;;;;;11.59;80.05;93849.13;733362;40;20037;-73
2021/06/17 01:48:08;;;;;;;19.30;14.15;;;;;;;11.65;79.61;93843.75;730166;40;20214;-72
2021/06/17 01:48:40;;;;;;;20.38;13.32;;;;;;;11.59;79.70;93844.72;733676;40;20037;-72
2021/06/17 01:49:13;;;;;;;15.93;13.00;;;;;;;11.58;79.65;93837.16;735217;40;20035;-72
2021/06/17 01:49:44;;;;;;;22.52;13.40;;;;;;;11.68;79.39;93840.69;735959;40;20585;-72
2021/06/17 01:50:16;;;;;;;18.50;13.10;;;;;;;11.67;79.22;93839.09;737969;40;20107;-72
2021/06/17 01:50:48;;;;;;;19.00;13.68;;;;;;;11.79;78.89;93849.44;737032;40;20052;-74
2021/06/17 01:51:21;;;;;;;18.48;13.10;;;;;;;11.75;78.61;93849.13;738460;40;20050;-72
2021/06/17 01:51:53;;;;;;;19.35;13.43;;;;;;;11.80;78.52;93848.41;737049;40;20052;-73
2021/06/17 01:52:28;;;;;;;17.98;12.75;;;;;;;11.82;78.38;93842.97;738303;40;20072;-72
2021/06/17 01:52:59;;;;;;;19.23;13.07;;;;;;;11.76;78.37;93844.69;736747;40;20032;-73
2021/06/17 01:53:30;;;;;;;18.50;13.25;;;;;;;11.77;78.36;93841.88;738604;40;20470;-72
2021/06/17 01:54:01;;;;;;;19.20;13.32;;;;;;;11.75;78.36;93848.34;735371;40;20283;-72
2021/06/17 01:54:33;;;;;;;15.32;12.43;;;;;;;11.68;78.60;93835.47;737992;40;20256;-73
2021/06/17 01:55:05;;;;;;;14.35;11.95;;;;;;;11.69;78.37;93844.09;737301;40;20416;-72
2021/06/17 01:55:38;;;;;;;19.58;12.80;;;;;;;11.62;78.68;93844.25;737630;40;20525;-73
2021/06/17 01:56:10;;;;;;;18.65;12.43;;;;;;;11.65;78.78;93841.16;736237;40;20208;-72
2021/06/17 01:56:41;;;;;;;18.15;12.48;;;;;;;11.64;78.45;93847.41;738031;40;20040;-73
2021/06/17 01:57:14;;;;;;;19.90;12.70;;;;;;;11.61;78.64;93844.50;737140;40;20040;-72
2021/06/17 01:57:46;;;;;;;16.02;12.05;;;;;;;11.56;78.71;93837.38;737294;40;20043;-72
2021/06/17 01:58:19;;;;;;;21.15;12.93;;;;;;;11.59;78.80;93843.94;736156;40;20524;-72
2021/06/17 01:59:02;;;;;;;23.85;13.10;;;;;;;11.54;78.68;93847.22;735256;40;20068;-72
2021/06/17 01:59:34;;;;;;;15.50;12.15;;;;;;;11.52;78.58;93842.28;736257;40;20036;-72
2021/06/17 02:00:05;;;;;;;15.52;12.10;;;;;;;11.46;79.12;93842.44;734197;40;20297;-72
2021/06/17 02:00:38;;;;;;;18.95;12.52;;;;;;;11.45;79.18;93841.63;735271;40;20055;-73
2021/06/17 02:01:09;;;;;;;17.92;13.07;;;;;;;11.47;79.55;93836.19;735471;40;20192;-72
2021/06/17 02:01:39;;;;;;;16.35;12.80;;;;;;;11.43;79.41;93840.31;736416;40;20102;-73
2021/06/17 02:02:12;;;;;;;18.13;12.43;;;;;;;11.39;79.51;93839.97;738420;40;20072;-73
2021/06/17 02:02:45;;;;;;;18.15;13.27;;;;;;;11.37;79.79;93838.63;737923;40;20142;-72
2021/06/17 02:03:17;;;;;;;21.73;13.55;;;;;;;11.31;80.24;93838.56;737119;40;20176;-73
2021/06/17 02:03:49;;;;;;;19.67;13.25;;;;;;;11.32;80.26;93834.94;737330;40;20130;-72
2021/06/17 02:04:20;;;;;;;22.33;14.27;;;;;;;11.36;79.93;93834.47;736199;40;20036;-72
2021/06/17 02:04:52;;;;;;;20.83;13.88;;;;;;;11.41;80.13;93837.94;735676;40;20036;-73
2021/06/17 02:05:22;;;;;;;21.45;13.40;;;;;;;11.43;80.12;93835.13;735586;40;20040;-73
2021/06/17 02:05:54;;;;;;;25.63;13.55;;;;;;;11.42;80.12;93834.28;735345;40;20053;-72
2021/06/17 02:06:26;;;;;;;22.77;13.95;;;;;;;11.38;80.02;93829.81;734930;40;20052;-71
2021/06/17 02:06:59;;;;;;;22.15;13.27;;;;;;;11.43;79.80;93840.31;737108;40;20103;-73
2021/06/17 02:07:30;;;;;;;23.02;14.68;;;;;;;11.43;80.11;93830.69;735017;40;20204;-72
2021/06/17 02:08:03;;;;;;;23.48;14.43;;;;;;;11.48;80.59;93829.97;736512;40;20045;-73
2021/06/17 02:08:34;;;;;;;18.13;14.75;;;;;;;11.44;80.61;93832.25;734718;40;20190;-73
2021/06/17 02:09:05;;;;;;;20.73;14.30;;;;;;;11.39;80.71;93839.97;736281;40;20460;-73
2021/06/17 02:09:36;;;;;;;20.23;14.60;;;;;;;11.31;80.71;93827.34;735954;40;20156;-73
2021/06/17 02:10:08;;;;;;;22.10;14.77;;;;;;;11.30;80.91;93831.00;733460;40;20057;-72
2021/06/17 02:10:40;;;;;;;20.38;14.10;;;;;;;11.29;81.10;93829.41;731430;40;20405;-74
2021/06/17 02:11:12;;;;;;;18.30;14.65;;;;;;;11.25;81.15;93826.50;735621;40;20423;-72
2021/06/17 02:11:43;;;;;;;22.33;14.82;;;;;;;11.24;81.00;93824.91;733584;40;20734;-73
2021/06/17 02:12:13;;;;;;;17.88;14.25;;;;;;;11.22;81.24;93819.16;734858;40;20113;-73
2021/06/17 02:12:46;;;;;;;19.88;15.18;;;;;;;11.25;81.15;93825.69;734564;40;20030;-73
2021/06/17 02:13:20;;;;;;;26.02;14.20;;;;;;;11.25;81.23;93817.88;736426;40;20057;-74
2021/06/17 02:13:52;;;;;;;20.38;14.20;;;;;;;11.27;81.55;93827.03;734814;40;20162;-73
2021/06/17 02:14:25;;;;;;;24.08;15.82;;;;;;;11.26;81.35;93822.09;736861;40;20115;-73
2021/06/17 02:14:56;;;;;;;20.67;14.80;;;;;;;11.27;81.53;93827.03;732947;40;20597;-73
2021/06/17 02:15:29;;;;;;;22.20;14.30;;;;;;;11.30;81.15;93820.56;734391;40;20363;-73
2021/06/17 02:16:04;;;;;;;19.50;14.32;;;;;;;11.27;80.91;93821.84;735110;40;20208;-74
2021/06/17 02:16:35;;;;;;;20.48;14.73;;;;;;;11.23;80.89;93820.75;735946;40;20071;-73
2021/06/17 02:17:08;;;;;;;20.25;14.85;;;;;;;11.22;81.04;93828.78;738000;40;20046;-73
2021/06/17 02:17:42;;;;;;;25.10;14.40;;;;;;;11.24;81.26;93824.91;737114;40;20142;-73
2021/06/17 02:18:18;;;;;;;19.60;15.00;;;;;;;11.28;80.43;93827.81;738353;40;20037;-72
2021/06/17 02:18:50;;;;;;;20.20;14.23;;;;;;;11.01;80.06;93819.84;734934;40;20243;-73
2021/06/17 02:19:23;;;;;;;22.52;13.10;;;;;;;10.97;80.51;93822.13;734460;40;20085;-73
2021/06/17 02:19:54;;;;;;;23.42;14.57;;;;;;;10.98;80.77;93834.13;732451;40;20158;-73
2021/06/17 02:20:25;;;;;;;17.55;13.40;;;;;;;11.03;80.84;93825.63;735349;40;20053;-73
2021/06/17 02:20:56;;;;;;;17.77;14.02;;;;;;;11.01;80.83;93823.22;733902;40;20145;-73
2021/06/17 02:21:30;;;;;;;19.60;14.38;;;;;;;10.99;81.25;93822.69;735953;40;20509;-73
2021/06/17 02:22:02;;;;;;;23.20;15.35;;;;;;;11.09;81.80;93824.69;735170;40;20340;-73
2021/06/17 02:22:36;;;;;;;22.88;14.90;;;;;;;11.02;81.56;93824.03;735814;40;20048;-73
2021/06/17 02:23:13;;;;;;;20.77;14.90;;;;;;;11.09;81.41;93827.28;736084;40;20052;-73
2021/06/17 02:23:48;;;;;;;20.40;15.00;;;;;;;11.13;81.84;93828.38;735187;40;20041;-73
2021/06/17 02:24:21;;;;;;;23.98;13.65;;;;;;;11.15;81.63;93813.31;738363;40;20060;-74
2021/06/17 02:24:55;;;;;;;19.13;14.70;;;;;;;11.22;81.49;93826.94;734175;40;20171;-72
2021/06/17 02:25:28;;;;;;;20.50;15.10;;;;;;;11.16;81.53;93825.28;734972;40;20245;-73
2021/06/17 02:25:59;;;;;;;21.63;14.07;;;;;;;11.17;81.75;93832.09;732613;40;20552;-73
2021/06/17 02:26:31;;;;;;;23.92;14.50;;;;;;;11.17;81.33;93823.50;734580;40;22303;-73
2021/06/17 02:27:10;;;;;;;23.77;14.80;;;;;;;11.20;81.32;93825.63;735423;40;20037;-73
2021/06/17 02:27:44;;;;;;;22.88;14.85;;;;;;;11.23;81.34;93830.38;734356;40;20052;-74
2021/06/17 02:28:18;;;;;;;22.35;14.80;;;;;;;11.20;81.19;93826.41;733025;40;20269;-73
2021/06/17 02:28:51;;;;;;;21.38;15.05;;;;;;;11.22;81.29;93824.34;733782;40;20339;-72
2021/06/17 02:29:23;;;;;;;17.98;14.35;;;;;;;11.20;81.11;93820.44;737818;40;20089;-72
2021/06/17 02:29:56;;;;;;;23.30;15.15;;;;;;;11.25;81.12;93826.50;736301;40;20072;-72
2021/06/17 02:30:30;;;;;;;19.63;14.43;;;;;;;11.21;81.31;93833.19;736206;40;20067;-71
2021/06/17 02:31:07;;;;;;;20.63;14.50;;;;;;;11.25;80.98;93825.69;732380;40;20032;-72
2021/06/17 02:31:42;;;;;;;20.65;13.82;;;;;;;11.19;80.89;93814.41;733675;40;20445;-72
2021/06/17 02:32:17;;;;;;;19.83;14.02;;;;;;;11.30;80.34;93834.38;733652;40;20041;-72
2021/06/17 02:32:54;;;;;;;21.05;14.13;;;;;;;11.30;80.52;93831.00;733898;40;20032;-71
2021/06/17 02:33:26;;;;;;;19.98;13.77;;;;;;;11.35;80.37;93832.91;735112;40;20041;-73
2021/06/17 02:33:57;;;;;;;15.57;13.43;;;;;;;11.26;80.43;93829.91;734685;40;20079;-72
2021/06/17 02:34:29;;;;;;;24.58;13.50;;;;;;;11.24;80.39;93826.72;732273;40;20041;-72
2021/06/17 02:35:04;;;;;;;18.73;13.27;;;;;;;11.21;80.20;93822.00;732689;40;20142;-72
2021/06/17 02:35:36;;;;;;;16.10;12.90;;;;;;;11.19;80.06;93835.25;734729;40;20543;-73
2021/06/17 02:36:08;;;;;;;21.83;12.80;;;;;;;11.13;80.02;93830.97;734642;40;20044;-72
2021/06/17 02:36:44;;;;;;;21.38;12.55;;;;;;;11.16;80.19;93835.72;733848;40;20099;-73